sensor_id;sensor_type;location;lat;lon;timestamp;pressure;altitude;pressure_sealevel;temperature;humidity
70072;BME280;57434;42.794;23.302;2023-03-14T00:01:08;95910.78;;;0.08;68.86
70072;BME280;57434;42.794;23.302;2023-03-14T00:02:10;95914.56;;;-0.10;69.29
70072;BME280;57434;42.794;23.302;2023-03-14T00:03:12;95888.50;;;-0.05;69.30
70072;BME280;57434;42.794;23.302;2023-03-14T00:04:14;95900.31;;;-0.32;69.45
70072;BME280;57434;42.794;23.302;2023-03-14T00:05:16;95902.28;;;-0.32;70.23
70072;BME280;57434;42.794;23.302;2023-03-14T00:06:18;95884.09;;;-0.26;69.84
70072;BME280;57434;42.794;23.302;2023-03-14T00:07:20;95853.88;;;-0.63;70.33
70072;BME280;57434;42.794;23.302;2023-03-14T00:08:22;95876.91;;;-0.20;70.07
70072;BME280;57434;42.794;23.302;2023-03-14T00:09:23;95891.47;;;-0.19;69.66
70072;BME280;57434;42.794;23.302;2023-03-14T00:10:25;95724.19;;;-1.30;70.09
70072;BME280;57434;42.794;23.302;2023-03-14T00:11:27;95862.94;;;-0.36;70.58
70072;BME280;57434;42.794;23.302;2023-03-14T00:12:29;95712.47;;;-1.38;70.19
70072;BME280;57434;42.794;23.302;2023-03-14T00:13:30;95897.28;;;-0.14;70.09
70072;BME280;57434;42.794;23.302;2023-03-14T00:14:32;95852.75;;;-0.39;70.09
70072;BME280;57434;42.794;23.302;2023-03-14T00:15:35;95769.28;;;-0.93;70.38
70072;BME280;57434;42.794;23.302;2023-03-14T00:16:37;95863.91;;;-0.46;70.71
70072;BME280;57434;42.794;23.302;2023-03-14T00:17:39;95895.31;;;-0.13;70.34
70072;BME280;57434;42.794;23.302;2023-03-14T00:18:41;95890.78;;;-0.27;70.47
70072;BME280;57434;42.794;23.302;2023-03-14T00:19:43;95875.44;;;-0.28;70.25
70072;BME280;57434;42.794;23.302;2023-03-14T00:20:45;95873.88;;;-0.29;70.32
70072;BME280;57434;42.794;23.302;2023-03-14T00:21:47;95661.69;;;-1.60;69.43
70072;BME280;57434;42.794;23.302;2023-03-14T00:22:48;95879.94;;;-0.14;69.41
70072;BME280;57434;42.794;23.302;2023-03-14T00:23:51;95882.25;;;-0.09;69.34
70072;BME280;57434;42.794;23.302;2023-03-14T00:24:53;95867.13;;;-0.51;70.58
70072;BME280;57434;42.794;23.302;2023-03-14T00:26:03;95864.72;;;-0.49;70.11
70072;BME280;57434;42.794;23.302;2023-03-14T00:27:05;95878.19;;;-0.28;70.35
70072;BME280;57434;42.794;23.302;2023-03-14T00:28:07;95678.19;;;-1.60;70.55
70072;BME280;57434;42.794;23.302;2023-03-14T00:29:08;95873.97;;;-0.36;70.98
70072;BME280;57434;42.794;23.302;2023-03-14T00:30:10;95877.59;;;-0.16;70.85
70072;BME280;57434;42.794;23.302;2023-03-14T00:31:14;95830.97;;;-0.57;70.53
70072;BME280;57434;42.794;23.302;2023-03-14T00:32:17;95693.94;;;-1.33;70.15
70072;BME280;57434;42.794;23.302;2023-03-14T00:33:20;95727.00;;;-1.07;70.16
70072;BME280;57434;42.794;23.302;2023-03-14T00:34:22;95870.84;;;-0.11;70.02
70072;BME280;57434;42.794;23.302;2023-03-14T00:35:24;95871.50;;;-0.27;70.84
70072;BME280;57434;42.794;23.302;2023-03-14T00:36:26;95871.66;;;-0.68;71.74
70072;BME280;57434;42.794;23.302;2023-03-14T00:37:27;95846.09;;;-0.42;71.21
70072;BME280;57434;42.794;23.302;2023-03-14T00:38:31;95697.84;;;-1.31;70.61
70072;BME280;57434;42.794;23.302;2023-03-14T00:39:33;95867.69;;;-0.10;70.38
70072;BME280;57434;42.794;23.302;2023-03-14T00:40:39;95859.81;;;-0.38;70.69
70072;BME280;57434;42.794;23.302;2023-03-14T00:41:40;95853.53;;;-0.39;70.53
70072;BME280;57434;42.794;23.302;2023-03-14T00:42:42;95837.53;;;-0.47;70.79
70072;BME280;57434;42.794;23.302;2023-03-14T00:43:45;95808.25;;;-0.64;70.77
70072;BME280;57434;42.794;23.302;2023-03-14T00:44:47;95809.28;;;-0.82;70.68
70072;BME280;57434;42.794;23.302;2023-03-14T00:45:52;95846.81;;;-0.38;70.67
70072;BME280;57434;42.794;23.302;2023-03-14T00:46:54;95852.50;;;-0.48;70.52
70072;BME280;57434;42.794;23.302;2023-03-14T00:47:56;95866.00;;;-0.57;70.79
70072;BME280;57434;42.794;23.302;2023-03-14T00:48:58;95852.88;;;-0.46;70.88
70072;BME280;57434;42.794;23.302;2023-03-14T00:50:00;95814.91;;;-0.62;70.86
70072;BME280;57434;42.794;23.302;2023-03-14T00:51:03;95837.72;;;-0.35;70.14
70072;BME280;57434;42.794;23.302;2023-03-14T00:52:05;95838.88;;;-0.32;69.95
70072;BME280;57434;42.794;23.302;2023-03-14T00:53:07;95811.88;;;-0.44;69.52
70072;BME280;57434;42.794;23.302;2023-03-14T00:54:09;95850.13;;;-0.19;69.32
70072;BME280;57434;42.794;23.302;2023-03-14T00:55:11;95842.25;;;-0.21;69.44
70072;BME280;57434;42.794;23.302;2023-03-14T00:56:13;95713.25;;;-1.07;69.08
70072;BME280;57434;42.794;23.302;2023-03-14T00:57:14;95861.78;;;-0.12;69.22
70072;BME280;57434;42.794;23.302;2023-03-14T00:58:17;95855.72;;;-0.26;69.33
70072;BME280;57434;42.794;23.302;2023-03-14T00:59:19;95861.59;;;-0.24;69.44
70072;BME280;57434;42.794;23.302;2023-03-14T01:00:21;95858.50;;;-0.26;69.70
70072;BME280;57434;42.794;23.302;2023-03-14T01:01:24;95828.84;;;-0.46;69.11
70072;BME280;57434;42.794;23.302;2023-03-14T01:02:26;95851.69;;;-0.18;68.82
70072;BME280;57434;42.794;23.302;2023-03-14T01:03:27;95816.56;;;-0.41;68.58
70072;BME280;57434;42.794;23.302;2023-03-14T01:04:29;95834.03;;;-0.51;68.47
70072;BME280;57434;42.794;23.302;2023-03-14T01:05:31;95680.97;;;-1.33;68.36
70072;BME280;57434;42.794;23.302;2023-03-14T01:06:34;95857.75;;;-0.30;68.30
70072;BME280;57434;42.794;23.302;2023-03-14T01:07:36;95845.72;;;-0.17;68.25
70072;BME280;57434;42.794;23.302;2023-03-14T01:08:38;95839.88;;;-0.19;67.98
70072;BME280;57434;42.794;23.302;2023-03-14T01:09:40;95840.56;;;-0.15;68.02
70072;BME280;57434;42.794;23.302;2023-03-14T01:10:42;95788.81;;;-0.54;67.97
70072;BME280;57434;42.794;23.302;2023-03-14T01:11:44;95827.16;;;-0.40;67.97
70072;BME280;57434;42.794;23.302;2023-03-14T01:12:46;95710.72;;;-1.24;68.21
70072;BME280;57434;42.794;23.302;2023-03-14T01:13:49;95839.69;;;-0.35;68.37
70072;BME280;57434;42.794;23.302;2023-03-14T01:14:51;95825.19;;;-0.39;68.46
70072;BME280;57434;42.794;23.302;2023-03-14T01:15:53;95818.94;;;-0.43;68.62
70072;BME280;57434;42.794;23.302;2023-03-14T01:16:55;95816.88;;;-0.36;68.67
70072;BME280;57434;42.794;23.302;2023-03-14T01:17:57;95835.19;;;-0.22;68.76
70072;BME280;57434;42.794;23.302;2023-03-14T01:18:59;95820.34;;;-0.32;68.67
70072;BME280;57434;42.794;23.302;2023-03-14T01:20:01;95796.47;;;-0.69;68.83
70072;BME280;57434;42.794;23.302;2023-03-14T01:21:04;95833.22;;;-0.48;69.14
70072;BME280;57434;42.794;23.302;2023-03-14T01:22:10;95818.06;;;-0.63;70.16
70072;BME280;57434;42.794;23.302;2023-03-14T01:23:12;95815.00;;;-0.69;70.46
70072;BME280;57434;42.794;23.302;2023-03-14T01:24:14;95838.88;;;-0.59;70.24
70072;BME280;57434;42.794;23.302;2023-03-14T01:25:16;95750.91;;;-1.00;70.17
70072;BME280;57434;42.794;23.302;2023-03-14T01:26:20;95831.00;;;-0.60;70.03
70072;BME280;57434;42.794;23.302;2023-03-14T01:27:23;95820.88;;;-0.40;69.91
70072;BME280;57434;42.794;23.302;2023-03-14T01:28:26;95756.06;;;-0.75;69.62
70072;BME280;57434;42.794;23.302;2023-03-14T01:29:27;95780.69;;;-0.64;69.29
70072;BME280;57434;42.794;23.302;2023-03-14T01:30:29;95813.56;;;-0.50;69.49
70072;BME280;57434;42.794;23.302;2023-03-14T01:31:31;95687.09;;;-1.22;69.14
70072;BME280;57434;42.794;23.302;2023-03-14T01:32:33;95822.03;;;-0.38;68.93
70072;BME280;57434;42.794;23.302;2023-03-14T01:33:36;95654.22;;;-1.59;68.86
70072;BME280;57434;42.794;23.302;2023-03-14T01:34:38;95638.16;;;-1.64;68.99
70072;BME280;57434;42.794;23.302;2023-03-14T01:35:40;95737.25;;;-1.07;69.22
70072;BME280;57434;42.794;23.302;2023-03-14T01:36:42;95825.75;;;-0.78;69.11
70072;BME280;57434;42.794;23.302;2023-03-14T01:37:43;95822.56;;;-0.73;69.21
70072;BME280;57434;42.794;23.302;2023-03-14T01:38:46;95634.66;;;-1.99;68.99
70072;BME280;57434;42.794;23.302;2023-03-14T01:39:48;95804.75;;;-0.99;69.32
70072;BME280;57434;42.794;23.302;2023-03-14T01:40:50;95775.19;;;-1.22;69.68
70072;BME280;57434;42.794;23.302;2023-03-14T01:41:52;95813.56;;;-1.08;70.39
70072;BME280;57434;42.794;23.302;2023-03-14T01:42:55;95789.75;;;-1.25;70.67
70072;BME280;57434;42.794;23.302;2023-03-14T01:43:57;95806.28;;;-1.25;71.04
70072;BME280;57434;42.794;23.302;2023-03-14T01:45:00;95787.72;;;-1.17;70.75
70072;BME280;57434;42.794;23.302;2023-03-14T01:47:07;95779.81;;;-1.15;70.31
70072;BME280;57434;42.794;23.302;2023-03-14T01:48:09;95802.09;;;-1.03;70.44
70072;BME280;57434;42.794;23.302;2023-03-14T01:49:13;95821.22;;;-0.92;70.53
70072;BME280;57434;42.794;23.302;2023-03-14T01:50:16;95686.16;;;-1.69;70.60
70072;BME280;57434;42.794;23.302;2023-03-14T01:51:41;95680.69;;;-1.73;70.70
70072;BME280;57434;42.794;23.302;2023-03-14T01:52:49;95797.84;;;-1.11;71.07
70072;BME280;57434;42.794;23.302;2023-03-14T01:53:59;95789.72;;;-1.21;71.48
70072;BME280;57434;42.794;23.302;2023-03-14T01:55:07;95846.50;;;-1.01;71.42
70072;BME280;57434;42.794;23.302;2023-03-14T01:56:13;95796.88;;;-0.97;71.10
70072;BME280;57434;42.794;23.302;2023-03-14T01:57:22;95792.25;;;-1.04;71.04
70072;BME280;57434;42.794;23.302;2023-03-14T01:58:27;95784.09;;;-1.11;71.02
70072;BME280;57434;42.794;23.302;2023-03-14T01:59:31;95768.88;;;-0.92;70.87
70072;BME280;57434;42.794;23.302;2023-03-14T02:00:34;95793.91;;;-1.10;71.19
70072;BME280;57434;42.794;23.302;2023-03-14T02:01:36;95721.56;;;-1.41;70.97
70072;BME280;57434;42.794;23.302;2023-03-14T02:02:52;95774.19;;;-1.05;70.78
70072;BME280;57434;42.794;23.302;2023-03-14T02:04:00;95774.19;;;-1.05;70.68
70072;BME280;57434;42.794;23.302;2023-03-14T02:05:04;95792.03;;;-1.16;71.26
70072;BME280;57434;42.794;23.302;2023-03-14T02:06:08;95775.09;;;-1.49;71.77
70072;BME280;57434;42.794;23.302;2023-03-14T02:07:15;95779.31;;;-1.37;72.46
70072;BME280;57434;42.794;23.302;2023-03-14T02:08:20;95746.06;;;-1.53;72.13
70072;BME280;57434;42.794;23.302;2023-03-14T02:09:23;95789.59;;;-1.11;72.08
70072;BME280;57434;42.794;23.302;2023-03-14T02:10:31;95783.06;;;-1.24;71.88
70072;BME280;57434;42.794;23.302;2023-03-14T02:11:34;95787.16;;;-1.05;71.89
70072;BME280;57434;42.794;23.302;2023-03-14T02:12:36;95784.03;;;-1.07;71.62
70072;BME280;57434;42.794;23.302;2023-03-14T02:13:38;95662.19;;;-2.03;71.39
70072;BME280;57434;42.794;23.302;2023-03-14T02:14:41;95813.97;;;-1.09;71.48
70072;BME280;57434;42.794;23.302;2023-03-14T02:15:43;95628.81;;;-2.05;71.51
70072;BME280;57434;42.794;23.302;2023-03-14T02:16:45;95776.59;;;-1.10;71.32
70072;BME280;57434;42.794;23.302;2023-03-14T02:17:47;95745.25;;;-1.20;71.09
70072;BME280;57434;42.794;23.302;2023-03-14T02:18:49;95618.53;;;-1.97;70.85
70072;BME280;57434;42.794;23.302;2023-03-14T02:21:17;95649.59;;;-2.00;71.99
70072;BME280;57434;42.794;23.302;2023-03-14T02:22:21;95789.31;;;-1.20;72.28
70072;BME280;57434;42.794;23.302;2023-03-14T02:23:41;95790.78;;;-1.12;72.15
70072;BME280;57434;42.794;23.302;2023-03-14T02:26:31;95795.97;;;-1.17;72.33
70072;BME280;57434;42.794;23.302;2023-03-14T02:27:37;95756.88;;;-1.36;71.93
70072;BME280;57434;42.794;23.302;2023-03-14T02:28:39;95766.97;;;-1.25;71.72
70072;BME280;57434;42.794;23.302;2023-03-14T02:29:52;95762.72;;;-1.30;71.38
70072;BME280;57434;42.794;23.302;2023-03-14T02:30:54;95782.44;;;-1.05;71.11
70072;BME280;57434;42.794;23.302;2023-03-14T02:31:56;95782.81;;;-1.03;70.29
70072;BME280;57434;42.794;23.302;2023-03-14T02:33:05;95797.81;;;-1.07;70.41
70072;BME280;57434;42.794;23.302;2023-03-14T02:34:08;95778.63;;;-1.14;70.00
70072;BME280;57434;42.794;23.302;2023-03-14T02:35:12;95780.19;;;-1.13;69.71
70072;BME280;57434;42.794;23.302;2023-03-14T02:36:16;95789.22;;;-1.13;69.78
70072;BME280;57434;42.794;23.302;2023-03-14T02:37:24;95780.69;;;-1.22;69.93
70072;BME280;57434;42.794;23.302;2023-03-14T02:38:55;95815.97;;;-1.13;70.23
70072;BME280;57434;42.794;23.302;2023-03-14T02:40:16;95778.06;;;-1.32;70.09
70072;BME280;57434;42.794;23.302;2023-03-14T02:41:18;95784.44;;;-1.39;70.42
70072;BME280;57434;42.794;23.302;2023-03-14T02:42:21;95806.47;;;-1.39;70.94
70072;BME280;57434;42.794;23.302;2023-03-14T02:43:23;95788.19;;;-1.56;71.33
70072;BME280;57434;42.794;23.302;2023-03-14T02:44:25;95776.56;;;-1.75;71.43
70072;BME280;57434;42.794;23.302;2023-03-14T02:45:42;95798.03;;;-1.59;71.62
70072;BME280;57434;42.794;23.302;2023-03-14T02:46:44;95792.81;;;-1.50;71.54
70072;BME280;57434;42.794;23.302;2023-03-14T02:47:51;95773.28;;;-1.59;71.49
70072;BME280;57434;42.794;23.302;2023-03-14T02:48:59;95781.38;;;-1.48;71.02
70072;BME280;57434;42.794;23.302;2023-03-14T02:50:09;95807.16;;;-1.31;71.05
70072;BME280;57434;42.794;23.302;2023-03-14T02:51:13;95784.41;;;-1.36;70.80
70072;BME280;57434;42.794;23.302;2023-03-14T02:52:15;95805.91;;;-1.27;70.59
70072;BME280;57434;42.794;23.302;2023-03-14T02:53:22;95790.50;;;-1.21;70.47
70072;BME280;57434;42.794;23.302;2023-03-14T02:54:25;95797.13;;;-1.15;70.04
70072;BME280;57434;42.794;23.302;2023-03-14T02:55:27;95777.50;;;-1.20;69.92
70072;BME280;57434;42.794;23.302;2023-03-14T02:56:28;95773.06;;;-1.41;69.74
70072;BME280;57434;42.794;23.302;2023-03-14T02:57:30;95656.19;;;-2.28;69.83
70072;BME280;57434;42.794;23.302;2023-03-14T02:58:32;95752.53;;;-1.67;70.33
70072;BME280;57434;42.794;23.302;2023-03-14T02:59:34;95809.63;;;-1.41;70.51
70072;BME280;57434;42.794;23.302;2023-03-14T03:00:36;95798.47;;;-1.64;70.70
70072;BME280;57434;42.794;23.302;2023-03-14T03:01:37;95667.50;;;-2.63;71.47
70072;BME280;57434;42.794;23.302;2023-03-14T03:02:40;95786.53;;;-1.84;71.53
70072;BME280;57434;42.794;23.302;2023-03-14T03:03:41;95786.19;;;-1.90;71.63
70072;BME280;57434;42.794;23.302;2023-03-14T03:04:43;95721.31;;;-2.25;71.82
70072;BME280;57434;42.794;23.302;2023-03-14T03:05:54;95645.59;;;-2.67;71.78
70072;BME280;57434;42.794;23.302;2023-03-14T03:06:56;95762.59;;;-1.87;71.80
70072;BME280;57434;42.794;23.302;2023-03-14T03:07:58;95799.34;;;-1.74;72.50
70072;BME280;57434;42.794;23.302;2023-03-14T03:09:00;95800.84;;;-1.66;72.41
70072;BME280;57434;42.794;23.302;2023-03-14T03:10:02;95793.19;;;-1.85;72.33
70072;BME280;57434;42.794;23.302;2023-03-14T03:11:05;95813.84;;;-1.66;72.22
70072;BME280;57434;42.794;23.302;2023-03-14T03:12:07;95812.97;;;-1.60;72.01
70072;BME280;57434;42.794;23.302;2023-03-14T03:13:08;95802.34;;;-1.58;71.97
70072;BME280;57434;42.794;23.302;2023-03-14T03:14:10;95651.63;;;-2.42;72.02
70072;BME280;57434;42.794;23.302;2023-03-14T03:15:12;95802.94;;;-1.40;71.73
70072;BME280;57434;42.794;23.302;2023-03-14T03:16:14;95769.28;;;-1.54;71.70
70072;BME280;57434;42.794;23.302;2023-03-14T03:17:16;95787.19;;;-1.39;71.03
70072;BME280;57434;42.794;23.302;2023-03-14T03:18:18;95767.75;;;-1.55;71.27
70072;BME280;57434;42.794;23.302;2023-03-14T03:19:20;95785.47;;;-1.60;71.53
70072;BME280;57434;42.794;23.302;2023-03-14T03:20:22;95635.03;;;-2.68;72.37
70072;BME280;57434;42.794;23.302;2023-03-14T03:21:24;95786.47;;;-1.81;72.93
70072;BME280;57434;42.794;23.302;2023-03-14T03:22:26;95777.94;;;-1.90;73.17
70072;BME280;57434;42.794;23.302;2023-03-14T03:23:28;95683.13;;;-2.53;73.29
70072;BME280;57434;42.794;23.302;2023-03-14T03:24:31;95721.22;;;-2.14;73.22
70072;BME280;57434;42.794;23.302;2023-03-14T03:25:32;95757.63;;;-2.03;73.13
70072;BME280;57434;42.794;23.302;2023-03-14T03:26:35;95776.34;;;-1.87;73.18
70072;BME280;57434;42.794;23.302;2023-03-14T03:27:37;95802.59;;;-1.83;73.08
70072;BME280;57434;42.794;23.302;2023-03-14T03:28:39;95782.66;;;-1.90;73.15
70072;BME280;57434;42.794;23.302;2023-03-14T03:29:41;95780.66;;;-1.86;73.00
70072;BME280;57434;42.794;23.302;2023-03-14T03:30:43;95679.94;;;-2.48;73.11
70072;BME280;57434;42.794;23.302;2023-03-14T03:31:45;95804.81;;;-1.71;72.54
70072;BME280;57434;42.794;23.302;2023-03-14T03:32:48;95754.19;;;-1.77;72.16
70072;BME280;57434;42.794;23.302;2023-03-14T03:33:50;95795.50;;;-1.80;71.88
70072;BME280;57434;42.794;23.302;2023-03-14T03:34:52;95788.28;;;-1.67;71.99
70072;BME280;57434;42.794;23.302;2023-03-14T03:35:54;95676.59;;;-2.29;71.77
70072;BME280;57434;42.794;23.302;2023-03-14T03:36:56;95612.31;;;-2.73;71.52
70072;BME280;57434;42.794;23.302;2023-03-14T03:37:59;95762.78;;;-1.71;71.43
70072;BME280;57434;42.794;23.302;2023-03-14T03:39:00;95812.16;;;-1.57;70.96
70072;BME280;57434;42.794;23.302;2023-03-14T03:40:02;95810.00;;;-1.76;70.98
70072;BME280;57434;42.794;23.302;2023-03-14T03:41:06;95780.56;;;-1.79;70.88
70072;BME280;57434;42.794;23.302;2023-03-14T03:42:08;95807.91;;;-2.06;71.08
70072;BME280;57434;42.794;23.302;2023-03-14T03:43:10;95762.72;;;-2.02;71.32
70072;BME280;57434;42.794;23.302;2023-03-14T03:44:12;95811.72;;;-1.89;71.39
70072;BME280;57434;42.794;23.302;2023-03-14T03:45:14;95823.06;;;-1.84;71.47
70072;BME280;57434;42.794;23.302;2023-03-14T03:46:16;95788.88;;;-1.83;71.54
70072;BME280;57434;42.794;23.302;2023-03-14T03:47:18;95801.09;;;-1.87;71.61
70072;BME280;57434;42.794;23.302;2023-03-14T03:48:19;95795.59;;;-1.91;71.72
70072;BME280;57434;42.794;23.302;2023-03-14T03:49:22;95805.06;;;-1.95;72.28
70072;BME280;57434;42.794;23.302;2023-03-14T03:50:24;95782.75;;;-2.05;72.14
70072;BME280;57434;42.794;23.302;2023-03-14T03:51:26;95817.56;;;-1.87;71.97
70072;BME280;57434;42.794;23.302;2023-03-14T03:52:28;95656.97;;;-2.65;71.83
70072;BME280;57434;42.794;23.302;2023-03-14T03:53:30;95786.91;;;-1.82;71.71
70072;BME280;57434;42.794;23.302;2023-03-14T03:54:35;95797.84;;;-1.79;71.68
70072;BME280;57434;42.794;23.302;2023-03-14T03:55:37;95797.19;;;-1.90;72.03
70072;BME280;57434;42.794;23.302;2023-03-14T03:56:39;95786.13;;;-1.83;72.15
70072;BME280;57434;42.794;23.302;2023-03-14T03:57:40;95764.53;;;-1.84;71.85
70072;BME280;57434;42.794;23.302;2023-03-14T03:58:43;95790.75;;;-1.76;71.58
70072;BME280;57434;42.794;23.302;2023-03-14T03:59:45;95601.47;;;-2.90;71.55
70072;BME280;57434;42.794;23.302;2023-03-14T04:00:46;95771.91;;;-1.78;71.42
70072;BME280;57434;42.794;23.302;2023-03-14T04:01:48;95773.47;;;-1.80;71.32
70072;BME280;57434;42.794;23.302;2023-03-14T04:02:51;95785.97;;;-1.72;71.30
70072;BME280;57434;42.794;23.302;2023-03-14T04:03:53;95825.44;;;-1.52;71.33
70072;BME280;57434;42.794;23.302;2023-03-14T04:04:55;95786.66;;;-1.61;70.90
70072;BME280;57434;42.794;23.302;2023-03-14T04:06:06;95802.41;;;-1.65;70.85
70072;BME280;57434;42.794;23.302;2023-03-14T04:07:08;95770.09;;;-1.91;71.06
70072;BME280;57434;42.794;23.302;2023-03-14T04:08:10;95797.81;;;-1.75;71.25
70072;BME280;57434;42.794;23.302;2023-03-14T04:09:12;95647.84;;;-2.58;70.69
70072;BME280;57434;42.794;23.302;2023-03-14T04:10:14;95683.50;;;-2.51;70.52
70072;BME280;57434;42.794;23.302;2023-03-14T04:11:16;95784.09;;;-1.79;70.63
70072;BME280;57434;42.794;23.302;2023-03-14T04:12:18;95768.16;;;-1.94;70.98
70072;BME280;57434;42.794;23.302;2023-03-14T04:13:20;95794.94;;;-1.64;70.62
70072;BME280;57434;42.794;23.302;2023-03-14T04:14:22;95796.06;;;-1.58;70.30
70072;BME280;57434;42.794;23.302;2023-03-14T04:15:24;95786.72;;;-1.68;70.08
70072;BME280;57434;42.794;23.302;2023-03-14T04:16:26;95787.50;;;-1.67;69.89
70072;BME280;57434;42.794;23.302;2023-03-14T04:17:28;95745.69;;;-1.86;69.63
70072;BME280;57434;42.794;23.302;2023-03-14T04:18:29;95778.84;;;-1.66;69.74
70072;BME280;57434;42.794;23.302;2023-03-14T04:19:31;95798.66;;;-1.82;69.95
70072;BME280;57434;42.794;23.302;2023-03-14T04:20:34;95749.75;;;-2.01;70.00
70072;BME280;57434;42.794;23.302;2023-03-14T04:21:36;95787.66;;;-1.82;70.44
70072;BME280;57434;42.794;23.302;2023-03-14T04:22:39;95731.06;;;-2.17;70.74
70072;BME280;57434;42.794;23.302;2023-03-14T04:23:41;95785.28;;;-1.80;70.73
70072;BME280;57434;42.794;23.302;2023-03-14T04:24:43;95774.91;;;-2.03;71.24
70072;BME280;57434;42.794;23.302;2023-03-14T04:25:45;95689.34;;;-2.46;71.22
70072;BME280;57434;42.794;23.302;2023-03-14T04:26:47;95813.19;;;-1.81;71.29
70072;BME280;57434;42.794;23.302;2023-03-14T04:27:49;95780.34;;;-1.95;71.19
70072;BME280;57434;42.794;23.302;2023-03-14T04:28:53;95778.38;;;-1.95;71.35
70072;BME280;57434;42.794;23.302;2023-03-14T04:29:55;95737.41;;;-2.23;71.56
70072;BME280;57434;42.794;23.302;2023-03-14T04:30:57;95575.22;;;-3.36;71.13
70072;BME280;57434;42.794;23.302;2023-03-14T04:31:59;95740.91;;;-2.19;71.63
70072;BME280;57434;42.794;23.302;2023-03-14T04:33:01;95779.53;;;-1.92;71.47
70072;BME280;57434;42.794;23.302;2023-03-14T04:34:03;95761.53;;;-2.00;71.41
70072;BME280;57434;42.794;23.302;2023-03-14T04:35:05;95715.06;;;-2.29;71.37
70072;BME280;57434;42.794;23.302;2023-03-14T04:36:08;95763.84;;;-1.95;71.38
70072;BME280;57434;42.794;23.302;2023-03-14T04:37:10;95762.06;;;-2.13;71.45
70072;BME280;57434;42.794;23.302;2023-03-14T04:38:13;95747.19;;;-2.19;71.43
70072;BME280;57434;42.794;23.302;2023-03-14T04:39:15;95708.91;;;-2.40;71.38
70072;BME280;57434;42.794;23.302;2023-03-14T04:40:17;95738.63;;;-2.28;71.56
70072;BME280;57434;42.794;23.302;2023-03-14T04:41:19;95756.25;;;-2.25;72.46
70072;BME280;57434;42.794;23.302;2023-03-14T04:42:21;95764.09;;;-2.24;72.66
70072;BME280;57434;42.794;23.302;2023-03-14T04:43:23;95525.31;;;-3.68;72.65
70072;BME280;57434;42.794;23.302;2023-03-14T04:44:25;95650.19;;;-3.01;72.60
70072;BME280;57434;42.794;23.302;2023-03-14T04:45:27;95745.34;;;-2.36;72.65
70072;BME280;57434;42.794;23.302;2023-03-14T04:46:29;95730.44;;;-2.35;72.40
70072;BME280;57434;42.794;23.302;2023-03-14T04:47:31;95755.16;;;-2.35;72.41
70072;BME280;57434;42.794;23.302;2023-03-14T04:48:32;95760.53;;;-2.17;72.21
70072;BME280;57434;42.794;23.302;2023-03-14T04:49:34;95588.47;;;-3.27;71.64
70072;BME280;57434;42.794;23.302;2023-03-14T04:50:36;95750.25;;;-2.10;71.73
70072;BME280;57434;42.794;23.302;2023-03-14T04:51:38;95747.00;;;-2.01;71.27
70072;BME280;57434;42.794;23.302;2023-03-14T04:52:40;95760.31;;;-1.96;71.41
70072;BME280;57434;42.794;23.302;2023-03-14T04:53:41;95754.06;;;-2.00;71.65
70072;BME280;57434;42.794;23.302;2023-03-14T04:54:43;95646.28;;;-2.59;71.86
70072;BME280;57434;42.794;23.302;2023-03-14T04:55:50;95739.25;;;-2.10;71.57
70072;BME280;57434;42.794;23.302;2023-03-14T04:56:52;95750.28;;;-2.13;71.21
70072;BME280;57434;42.794;23.302;2023-03-14T04:57:54;95670.22;;;-2.60;71.29
70072;BME280;57434;42.794;23.302;2023-03-14T04:58:56;95752.25;;;-2.14;71.58
70072;BME280;57434;42.794;23.302;2023-03-14T04:59:58;95756.41;;;-1.98;71.73
70072;BME280;57434;42.794;23.302;2023-03-14T05:01:03;95667.41;;;-2.49;71.58
70072;BME280;57434;42.794;23.302;2023-03-14T05:02:05;95753.13;;;-1.83;71.15
70072;BME280;57434;42.794;23.302;2023-03-14T05:03:07;95705.41;;;-2.07;70.71
70072;BME280;57434;42.794;23.302;2023-03-14T05:04:09;95758.03;;;-1.67;70.00
70072;BME280;57434;42.794;23.302;2023-03-14T05:05:11;95756.44;;;-1.64;69.81
70072;BME280;57434;42.794;23.302;2023-03-14T05:06:13;95753.63;;;-1.57;69.69
70072;BME280;57434;42.794;23.302;2023-03-14T05:07:15;95713.09;;;-1.87;69.79
70072;BME280;57434;42.794;23.302;2023-03-14T05:08:17;95660.25;;;-2.40;69.88
70072;BME280;57434;42.794;23.302;2023-03-14T05:09:19;95624.81;;;-3.16;70.43
70072;BME280;57434;42.794;23.302;2023-03-14T05:10:21;95773.91;;;-2.23;71.13
70072;BME280;57434;42.794;23.302;2023-03-14T05:11:22;95716.94;;;-2.19;70.78
70072;BME280;57434;42.794;23.302;2023-03-14T05:12:24;95672.78;;;-2.39;70.97
70072;BME280;57434;42.794;23.302;2023-03-14T05:13:26;95723.59;;;-2.16;71.17
70072;BME280;57434;42.794;23.302;2023-03-14T05:14:28;95727.03;;;-2.09;71.44
70072;BME280;57434;42.794;23.302;2023-03-14T05:15:30;95745.28;;;-1.84;71.19
70072;BME280;57434;42.794;23.302;2023-03-14T05:16:32;95714.28;;;-1.88;70.81
70072;BME280;57434;42.794;23.302;2023-03-14T05:17:34;95725.44;;;-1.69;70.47
70072;BME280;57434;42.794;23.302;2023-03-14T05:18:37;95544.09;;;-2.78;70.05
70072;BME280;57434;42.794;23.302;2023-03-14T05:19:39;95747.06;;;-1.37;69.95
70072;BME280;57434;42.794;23.302;2023-03-14T05:20:41;95744.59;;;-1.27;69.47
70072;BME280;57434;42.794;23.302;2023-03-14T05:21:43;95741.31;;;-1.19;69.26
70072;BME280;57434;42.794;23.302;2023-03-14T05:22:45;95725.63;;;-1.22;69.09
70072;BME280;57434;42.794;23.302;2023-03-14T05:23:47;95726.03;;;-1.23;68.91
70072;BME280;57434;42.794;23.302;2023-03-14T05:24:48;95761.59;;;-1.06;68.95
70072;BME280;57434;42.794;23.302;2023-03-14T05:25:50;95731.78;;;-1.11;68.69
70072;BME280;57434;42.794;23.302;2023-03-14T05:26:53;95741.03;;;-0.97;68.54
70072;BME280;57434;42.794;23.302;2023-03-14T05:27:55;95747.84;;;-1.06;69.02
70072;BME280;57434;42.794;23.302;2023-03-14T05:28:57;95613.16;;;-1.77;68.62
70072;BME280;57434;42.794;23.302;2023-03-14T05:29:59;95705.56;;;-1.22;68.46
70072;BME280;57434;42.794;23.302;2023-03-14T05:31:01;95733.06;;;-0.92;68.46
70072;BME280;57434;42.794;23.302;2023-03-14T05:32:02;95718.56;;;-0.96;68.38
70072;BME280;57434;42.794;23.302;2023-03-14T05:33:04;95739.91;;;-0.73;68.29
70072;BME280;57434;42.794;23.302;2023-03-14T05:34:06;95744.91;;;-0.68;68.06